sensor_id;sensor_type;location;lat;lon;timestamp;temperature;humidity
49218;DHT22;35045;51.194;7.268;2023-04-25T00:00:37;5.90;99.90
49218;DHT22;35045;51.194;7.268;2023-04-25T00:03:03;5.80;99.90
49218;DHT22;35045;51.194;7.268;2023-04-25T00:05:31;5.80;99.90
49218;DHT22;35045;51.194;7.268;2023-04-25T00:07:57;5.70;99.90
49218;DHT22;35045;51.194;7.268;2023-04-25T00:10:24;5.70;99.90
49218;DHT22;35045;51.194;7.268;2023-04-25T00:12:50;5.70;99.90
49218;DHT22;35045;51.194;7.268;2023-04-25T00:15:17;5.80;99.90
49218;DHT22;35045;51.194;7.268;2023-04-25T00:17:43;5.70;99.90
49218;DHT22;35045;51.194;7.268;2023-04-25T00:20:11;5.70;99.90
49218;DHT22;35045;51.194;7.268;2023-04-25T00:22:38;5.80;99.90
49218;DHT22;35045;51.194;7.268;2023-04-25T00:25:05;5.90;99.90
49218;DHT22;35045;51.194;7.268;2023-04-25T00:27:32;5.90;99.90
49218;DHT22;35045;51.194;7.268;2023-04-25T00:29:58;5.80;99.90
49218;DHT22;35045;51.194;7.268;2023-04-25T00:32:24;5.90;99.90
49218;DHT22;35045;51.194;7.268;2023-04-25T00:34:50;5.90;99.90
49218;DHT22;35045;51.194;7.268;2023-04-25T00:37:17;6.00;99.90
49218;DHT22;35045;51.194;7.268;2023-04-25T00:39:44;6.00;99.90
49218;DHT22;35045;51.194;7.268;2023-04-25T00:42:11;6.00;99.90
49218;DHT22;35045;51.194;7.268;2023-04-25T00:44:38;6.00;99.90
49218;DHT22;35045;51.194;7.268;2023-04-25T00:47:04;6.10;99.90
49218;DHT22;35045;51.194;7.268;2023-04-25T00:49:31;6.00;99.90
49218;DHT22;35045;51.194;7.268;2023-04-25T00:51:57;5.90;99.90
49218;DHT22;35045;51.194;7.268;2023-04-25T00:54:23;5.90;99.90
49218;DHT22;35045;51.194;7.268;2023-04-25T00:56:49;6.00;99.90
49218;DHT22;35045;51.194;7.268;2023-04-25T00:59:17;6.00;99.90
49218;DHT22;35045;51.194;7.268;2023-04-25T01:01:44;6.10;99.90
49218;DHT22;35045;51.194;7.268;2023-04-25T01:04:11;6.10;99.90
49218;DHT22;35045;51.194;7.268;2023-04-25T01:06:37;6.10;99.90
49218;DHT22;35045;51.194;7.268;2023-04-25T01:09:04;6.00;99.90
49218;DHT22;35045;51.194;7.268;2023-04-25T01:11:31;6.00;99.90
49218;DHT22;35045;51.194;7.268;2023-04-25T01:13:57;6.00;99.90
49218;DHT22;35045;51.194;7.268;2023-04-25T01:16:23;6.10;99.90
49218;DHT22;35045;51.194;7.268;2023-04-25T01:18:50;6.10;99.90
49218;DHT22;35045;51.194;7.268;2023-04-25T01:21:17;6.10;99.90
49218;DHT22;35045;51.194;7.268;2023-04-25T01:23:43;6.10;99.90
49218;DHT22;35045;51.194;7.268;2023-04-25T01:26:10;6.10;99.90
49218;DHT22;35045;51.194;7.268;2023-04-25T01:28:38;6.00;99.90
49218;DHT22;35045;51.194;7.268;2023-04-25T01:31:07;6.00;99.90
49218;DHT22;35045;51.194;7.268;2023-04-25T01:33:33;5.90;99.90
49218;DHT22;35045;51.194;7.268;2023-04-25T01:35:59;6.00;99.90
49218;DHT22;35045;51.194;7.268;2023-04-25T01:38:26;6.00;99.90
49218;DHT22;35045;51.194;7.268;2023-04-25T01:40:53;6.10;99.90
49218;DHT22;35045;51.194;7.268;2023-04-25T01:43:20;6.10;99.90
49218;DHT22;35045;51.194;7.268;2023-04-25T01:45:46;6.20;99.90
49218;DHT22;35045;51.194;7.268;2023-04-25T01:48:13;6.20;99.90
49218;DHT22;35045;51.194;7.268;2023-04-25T01:50:41;6.10;99.90
49218;DHT22;35045;51.194;7.268;2023-04-25T01:53:09;6.10;99.90
49218;DHT22;35045;51.194;7.268;2023-04-25T01:55:35;6.00;99.90
49218;DHT22;35045;51.194;7.268;2023-04-25T01:58:03;6.00;99.90
49218;DHT22;35045;51.194;7.268;2023-04-25T02:00:29;6.00;99.90
49218;DHT22;35045;51.194;7.268;2023-04-25T02:02:58;6.10;99.90
49218;DHT22;35045;51.194;7.268;2023-04-25T02:05:25;6.10;99.90
49218;DHT22;35045;51.194;7.268;2023-04-25T02:07:51;6.10;99.90
49218;DHT22;35045;51.194;7.268;2023-04-25T02:10:17;6.10;99.90
49218;DHT22;35045;51.194;7.268;2023-04-25T02:12:43;6.10;99.90
49218;DHT22;35045;51.194;7.268;2023-04-25T02:15:09;6.10;99.90
49218;DHT22;35045;51.194;7.268;2023-04-25T02:17:36;6.10;99.90
49218;DHT22;35045;51.194;7.268;2023-04-25T02:20:03;6.10;99.90
49218;DHT22;35045;51.194;7.268;2023-04-25T02:22:29;6.00;99.90
49218;DHT22;35045;51.194;7.268;2023-04-25T02:24:56;6.00;99.90
49218;DHT22;35045;51.194;7.268;2023-04-25T02:27:22;6.10;99.90
49218;DHT22;35045;51.194;7.268;2023-04-25T02:29:48;6.10;99.90
49218;DHT22;35045;51.194;7.268;2023-04-25T02:32:14;6.10;99.90
49218;DHT22;35045;51.194;7.268;2023-04-25T02:34:41;6.00;99.90
49218;DHT22;35045;51.194;7.268;2023-04-25T02:37:07;5.90;99.90
49218;DHT22;35045;51.194;7.268;2023-04-25T02:39:33;5.90;99.90
49218;DHT22;35045;51.194;7.268;2023-04-25T02:41:59;5.90;99.90
49218;DHT22;35045;51.194;7.268;2023-04-25T02:44:26;5.80;99.90
49218;DHT22;35045;51.194;7.268;2023-04-25T02:46:53;5.70;99.90
49218;DHT22;35045;51.194;7.268;2023-04-25T02:49:19;5.80;99.90
49218;DHT22;35045;51.194;7.268;2023-04-25T02:51:45;5.80;99.90
49218;DHT22;35045;51.194;7.268;2023-04-25T02:54:11;5.90;99.90
49218;DHT22;35045;51.194;7.268;2023-04-25T02:56:37;5.90;99.90
49218;DHT22;35045;51.194;7.268;2023-04-25T02:59:04;5.90;99.90
49218;DHT22;35045;51.194;7.268;2023-04-25T03:01:30;5.80;99.90
49218;DHT22;35045;51.194;7.268;2023-04-25T03:03:56;5.80;99.90
49218;DHT22;35045;51.194;7.268;2023-04-25T03:06:22;5.80;99.90
49218;DHT22;35045;51.194;7.268;2023-04-25T03:08:48;5.80;99.90
49218;DHT22;35045;51.194;7.268;2023-04-25T03:11:15;5.80;99.90
49218;DHT22;35045;51.194;7.268;2023-04-25T03:13:41;5.80;99.90
49218;DHT22;35045;51.194;7.268;2023-04-25T03:16:07;5.70;99.90
49218;DHT22;35045;51.194;7.268;2023-04-25T03:18:33;5.70;99.90
49218;DHT22;35045;51.194;7.268;2023-04-25T03:20:59;5.70;99.90
49218;DHT22;35045;51.194;7.268;2023-04-25T03:23:25;5.80;99.90
49218;DHT22;35045;51.194;7.268;2023-04-25T03:25:52;5.80;99.90
49218;DHT22;35045;51.194;7.268;2023-04-25T03:28:18;5.80;99.90
49218;DHT22;35045;51.194;7.268;2023-04-25T03:30:44;5.80;99.90
49218;DHT22;35045;51.194;7.268;2023-04-25T03:33:10;5.70;99.90
49218;DHT22;35045;51.194;7.268;2023-04-25T03:35:36;5.70;99.90
49218;DHT22;35045;51.194;7.268;2023-04-25T03:38:03;5.70;99.90
49218;DHT22;35045;51.194;7.268;2023-04-25T03:40:29;5.70;99.90
49218;DHT22;35045;51.194;7.268;2023-04-25T03:42:55;5.80;99.90
49218;DHT22;35045;51.194;7.268;2023-04-25T03:45:21;5.80;99.90
49218;DHT22;35045;51.194;7.268;2023-04-25T03:47:47;5.80;99.90
49218;DHT22;35045;51.194;7.268;2023-04-25T03:50:13;5.80;99.90
49218;DHT22;35045;51.194;7.268;2023-04-25T03:52:40;5.90;99.90
49218;DHT22;35045;51.194;7.268;2023-04-25T03:55:06;5.80;99.90
49218;DHT22;35045;51.194;7.268;2023-04-25T03:57:33;5.70;99.90
49218;DHT22;35045;51.194;7.268;2023-04-25T03:59:59;5.70;99.90
49218;DHT22;35045;51.194;7.268;2023-04-25T04:02:25;5.60;99.90
49218;DHT22;35045;51.194;7.268;2023-04-25T04:04:51;5.50;99.90
49218;DHT22;35045;51.194;7.268;2023-04-25T04:07:18;5.60;99.90
49218;DHT22;35045;51.194;7.268;2023-04-25T04:09:44;5.70;99.90
49218;DHT22;35045;51.194;7.268;2023-04-25T04:12:10;5.80;99.90
49218;DHT22;35045;51.194;7.268;2023-04-25T04:14:36;5.90;99.90
49218;DHT22;35045;51.194;7.268;2023-04-25T04:17:03;5.90;99.90
49218;DHT22;35045;51.194;7.268;2023-04-25T04:19:29;5.90;99.90
49218;DHT22;35045;51.194;7.268;2023-04-25T04:21:55;5.80;99.90
49218;DHT22;35045;51.194;7.268;2023-04-25T04:24:21;5.70;99.90
49218;DHT22;35045;51.194;7.268;2023-04-25T04:26:47;5.70;99.90
49218;DHT22;35045;51.194;7.268;2023-04-25T04:29:13;5.70;99.90
49218;DHT22;35045;51.194;7.268;2023-04-25T04:31:50;5.80;99.90
49218;DHT22;35045;51.194;7.268;2023-04-25T04:34:17;5.80;99.90
49218;DHT22;35045;51.194;7.268;2023-04-25T04:36:45;5.70;99.90
49218;DHT22;35045;51.194;7.268;2023-04-25T04:39:12;5.70;99.90
49218;DHT22;35045;51.194;7.268;2023-04-25T04:41:38;5.60;99.90
49218;DHT22;35045;51.194;7.268;2023-04-25T04:44:05;5.70;99.90
49218;DHT22;35045;51.194;7.268;2023-04-25T04:46:33;5.70;99.90
49218;DHT22;35045;51.194;7.268;2023-04-25T04:49:06;5.80;99.90
49218;DHT22;35045;51.194;7.268;2023-04-25T04:51:32;5.80;99.90
49218;DHT22;35045;51.194;7.268;2023-04-25T04:53:59;5.90;99.90
49218;DHT22;35045;51.194;7.268;2023-04-25T04:56:31;5.80;99.90
49218;DHT22;35045;51.194;7.268;2023-04-25T04:58:58;5.80;99.90
49218;DHT22;35045;51.194;7.268;2023-04-25T05:01:25;5.80;99.90
49218;DHT22;35045;51.194;7.268;2023-04-25T05:03:52;5.80;99.90
49218;DHT22;35045;51.194;7.268;2023-04-25T05:06:19;5.80;99.90
49218;DHT22;35045;51.194;7.268;2023-04-25T05:08:45;5.80;99.90
49218;DHT22;35045;51.194;7.268;2023-04-25T05:11:11;5.90;99.90
49218;DHT22;35045;51.194;7.268;2023-04-25T05:13:37;5.80;99.90
49218;DHT22;35045;51.194;7.268;2023-04-25T05:16:04;5.80;99.90
49218;DHT22;35045;51.194;7.268;2023-04-25T05:18:30;5.80;99.90
49218;DHT22;35045;51.194;7.268;2023-04-25T05:20:56;5.80;99.90
49218;DHT22;35045;51.194;7.268;2023-04-25T05:23:22;5.80;99.90
49218;DHT22;35045;51.194;7.268;2023-04-25T05:25:48;5.80;99.90
49218;DHT22;35045;51.194;7.268;2023-04-25T05:28:14;5.70;99.90
49218;DHT22;35045;51.194;7.268;2023-04-25T05:30:40;5.70;99.90
49218;DHT22;35045;51.194;7.268;2023-04-25T05:33:07;5.70;99.90
49218;DHT22;35045;51.194;7.268;2023-04-25T05:35:33;5.60;99.90
49218;DHT22;35045;51.194;7.268;2023-04-25T05:37:59;5.50;99.90
49218;DHT22;35045;51.194;7.268;2023-04-25T05:40:25;5.60;99.90
49218;DHT22;35045;51.194;7.268;2023-04-25T05:42:51;5.70;99.90
49218;DHT22;35045;51.194;7.268;2023-04-25T05:45:18;5.70;99.90
49218;DHT22;35045;51.194;7.268;2023-04-25T05:47:44;5.60;99.90
49218;DHT22;35045;51.194;7.268;2023-04-25T05:50:10;5.70;99.90
49218;DHT22;35045;51.194;7.268;2023-04-25T05:52:36;5.70;99.90
49218;DHT22;35045;51.194;7.268;2023-04-25T05:55:02;5.60;99.90
49218;DHT22;35045;51.194;7.268;2023-04-25T05:57:29;5.60;99.90
49218;DHT22;35045;51.194;7.268;2023-04-25T05:59:55;5.60;99.90
49218;DHT22;35045;51.194;7.268;2023-04-25T06:02:22;5.70;99.90
49218;DHT22;35045;51.194;7.268;2023-04-25T06:04:50;5.80;99.90
49218;DHT22;35045;51.194;7.268;2023-04-25T06:07:17;5.80;99.90
49218;DHT22;35045;51.194;7.268;2023-04-25T06:09:44;5.80;99.90
49218;DHT22;35045;51.194;7.268;2023-04-25T06:12:10;5.80;99.90
49218;DHT22;35045;51.194;7.268;2023-04-25T06:14:37;5.80;99.90
49218;DHT22;35045;51.194;7.268;2023-04-25T06:17:03;5.80;99.90
49218;DHT22;35045;51.194;7.268;2023-04-25T06:19:35;5.70;99.90
49218;DHT22;35045;51.194;7.268;2023-04-25T06:22:02;5.70;99.90
49218;DHT22;35045;51.194;7.268;2023-04-25T06:24:28;5.80;99.90
49218;DHT22;35045;51.194;7.268;2023-04-25T06:26:55;5.80;99.90
49218;DHT22;35045;51.194;7.268;2023-04-25T06:29:21;5.80;99.90
49218;DHT22;35045;51.194;7.268;2023-04-25T06:31:47;6.00;99.90
49218;DHT22;35045;51.194;7.268;2023-04-25T06:34:13;5.90;99.90
49218;DHT22;35045;51.194;7.268;2023-04-25T06:36:39;6.00;99.90
49218;DHT22;35045;51.194;7.268;2023-04-25T06:39:07;6.10;99.90
49218;DHT22;35045;51.194;7.268;2023-04-25T06:41:34;6.30;99.90
49218;DHT22;35045;51.194;7.268;2023-04-25T06:44:01;6.40;99.90
49218;DHT22;35045;51.194;7.268;2023-04-25T06:46:27;6.40;99.90
49218;DHT22;35045;51.194;7.268;2023-04-25T06:48:53;6.60;99.90
49218;DHT22;35045;51.194;7.268;2023-04-25T06:51:20;6.60;99.90
49218;DHT22;35045;51.194;7.268;2023-04-25T06:53:47;6.50;99.90
49218;DHT22;35045;51.194;7.268;2023-04-25T06:56:13;6.60;99.90
49218;DHT22;35045;51.194;7.268;2023-04-25T06:58:39;6.60;99.90
49218;DHT22;35045;51.194;7.268;2023-04-25T07:01:05;6.70;99.90
49218;DHT22;35045;51.194;7.268;2023-04-25T07:03:31;6.90;99.90
49218;DHT22;35045;51.194;7.268;2023-04-25T07:05:58;7.10;99.90
49218;DHT22;35045;51.194;7.268;2023-04-25T07:08:24;7.00;99.90
49218;DHT22;35045;51.194;7.268;2023-04-25T07:10:50;6.90;99.90
49218;DHT22;35045;51.194;7.268;2023-04-25T07:13:16;7.00;99.90
49218;DHT22;35045;51.194;7.268;2023-04-25T07:15:43;7.10;99.90
49218;DHT22;35045;51.194;7.268;2023-04-25T07:18:09;7.10;99.90
49218;DHT22;35045;51.194;7.268;2023-04-25T07:20:36;7.20;99.90
49218;DHT22;35045;51.194;7.268;2023-04-25T07:23:02;7.20;99.90
49218;DHT22;35045;51.194;7.268;2023-04-25T07:25:29;7.00;99.90
49218;DHT22;35045;51.194;7.268;2023-04-25T07:27:56;6.80;99.90
49218;DHT22;35045;51.194;7.268;2023-04-25T07:30:23;6.70;99.90
49218;DHT22;35045;51.194;7.268;2023-04-25T07:32:50;6.90;99.90
49218;DHT22;35045;51.194;7.268;2023-04-25T07:35:16;7.00;99.90
49218;DHT22;35045;51.194;7.268;2023-04-25T07:37:43;6.90;99.90
49218;DHT22;35045;51.194;7.268;2023-04-25T07:40:09;7.20;99.90
49218;DHT22;35045;51.194;7.268;2023-04-25T07:42:36;7.20;99.90
49218;DHT22;35045;51.194;7.268;2023-04-25T07:45:02;7.50;99.90
49218;DHT22;35045;51.194;7.268;2023-04-25T07:47:29;7.50;99.90
49218;DHT22;35045;51.194;7.268;2023-04-25T07:49:55;7.30;99.90
49218;DHT22;35045;51.194;7.268;2023-04-25T07:52:22;7.20;99.90
49218;DHT22;35045;51.194;7.268;2023-04-25T07:54:48;6.90;99.90
49218;DHT22;35045;51.194;7.268;2023-04-25T07:57:14;7.00;99.90
49218;DHT22;35045;51.194;7.268;2023-04-25T07:59:40;6.80;99.90
49218;DHT22;35045;51.194;7.268;2023-04-25T08:02:07;6.80;99.90
49218;DHT22;35045;51.194;7.268;2023-04-25T08:04:33;6.70;99.90
49218;DHT22;35045;51.194;7.268;2023-04-25T08:06:59;6.60;99.90
49218;DHT22;35045;51.194;7.268;2023-04-25T08:09:25;6.70;99.90
49218;DHT22;35045;51.194;7.268;2023-04-25T08:11:52;6.70;99.90
49218;DHT22;35045;51.194;7.268;2023-04-25T08:14:18;6.80;99.90
49218;DHT22;35045;51.194;7.268;2023-04-25T08:16:44;6.90;99.90
49218;DHT22;35045;51.194;7.268;2023-04-25T08:19:10;6.90;99.90
49218;DHT22;35045;51.194;7.268;2023-04-25T08:21:37;7.00;99.90
49218;DHT22;35045;51.194;7.268;2023-04-25T08:24:03;7.10;99.90
49218;DHT22;35045;51.194;7.268;2023-04-25T08:26:29;7.20;99.90
49218;DHT22;35045;51.194;7.268;2023-04-25T08:28:56;7.20;99.90
49218;DHT22;35045;51.194;7.268;2023-04-25T08:31:22;7.20;99.90
49218;DHT22;35045;51.194;7.268;2023-04-25T08:33:48;7.50;99.90
49218;DHT22;35045;51.194;7.268;2023-04-25T08:36:15;7.80;99.90
49218;DHT22;35045;51.194;7.268;2023-04-25T08:38:44;8.10;99.90
49218;DHT22;35045;51.194;7.268;2023-04-25T08:41:11;8.10;99.90
49218;DHT22;35045;51.194;7.268;2023-04-25T08:43:37;8.00;99.90
49218;DHT22;35045;51.194;7.268;2023-04-25T08:46:08;7.80;99.90
49218;DHT22;35045;51.194;7.268;2023-04-25T08:48:34;7.80;99.90
49218;DHT22;35045;51.194;7.268;2023-04-25T08:51:02;7.70;99.90
49218;DHT22;35045;51.194;7.268;2023-04-25T08:53:32;7.70;99.90
49218;DHT22;35045;51.194;7.268;2023-04-25T08:56:01;7.60;99.90
49218;DHT22;35045;51.194;7.268;2023-04-25T08:58:28;7.50;99.90
49218;DHT22;35045;51.194;7.268;2023-04-25T09:00:54;7.70;99.90
49218;DHT22;35045;51.194;7.268;2023-04-25T09:03:21;7.70;99.90
49218;DHT22;35045;51.194;7.268;2023-04-25T09:05:47;7.70;99.90
49218;DHT22;35045;51.194;7.268;2023-04-25T09:08:13;7.60;99.90
49218;DHT22;35045;51.194;7.268;2023-04-25T09:10:40;7.50;99.90
49218;DHT22;35045;51.194;7.268;2023-04-25T09:13:12;7.60;99.90
49218;DHT22;35045;51.194;7.268;2023-04-25T09:15:51;7.80;99.90
49218;DHT22;35045;51.194;7.268;2023-04-25T09:18:27;7.90;99.90
49218;DHT22;35045;51.194;7.268;2023-04-25T09:20:57;7.70;99.90
49218;DHT22;35045;51.194;7.268;2023-04-25T09:23:25;7.70;99.90
49218;DHT22;35045;51.194;7.268;2023-04-25T09:25:53;7.70;99.90
49218;DHT22;35045;51.194;7.268;2023-04-25T09:28:26;7.70;99.90
49218;DHT22;35045;51.194;7.268;2023-04-25T09:30:55;7.80;99.90
49218;DHT22;35045;51.194;7.268;2023-04-25T09:33:30;7.80;99.90
49218;DHT22;35045;51.194;7.268;2023-04-25T09:36:07;8.00;99.90
49218;DHT22;35045;51.194;7.268;2023-04-25T09:38:54;8.10;99.90
49218;DHT22;35045;51.194;7.268;2023-04-25T09:41:24;8.20;99.90
49218;DHT22;35045;51.194;7.268;2023-04-25T09:43:51;8.50;99.90
49218;DHT22;35045;51.194;7.268;2023-04-25T09:46:17;8.80;99.90
49218;DHT22;35045;51.194;7.268;2023-04-25T09:48:50;9.20;99.90
49218;DHT22;35045;51.194;7.268;2023-04-25T09:51:17;9.40;99.70
49218;DHT22;35045;51.194;7.268;2023-04-25T09:53:45;9.50;99.90
49218;DHT22;35045;51.194;7.268;2023-04-25T09:56:18;9.50;99.90
49218;DHT22;35045;51.194;7.268;2023-04-25T09:58:47;9.50;99.50
49218;DHT22;35045;51.194;7.268;2023-04-25T10:01:13;9.00;99.90
49218;DHT22;35045;51.194;7.268;2023-04-25T10:03:40;8.90;99.90
49218;DHT22;35045;51.194;7.268;2023-04-25T10:06:09;8.60;99.90
49218;DHT22;35045;51.194;7.268;2023-04-25T10:08:38;8.60;99.90
49218;DHT22;35045;51.194;7.268;2023-04-25T10:11:06;8.60;99.90
49218;DHT22;35045;51.194;7.268;2023-04-25T10:13:34;8.70;99.90
49218;DHT22;35045;51.194;7.268;2023-04-25T10:16:04;8.80;99.90
49218;DHT22;35045;51.194;7.268;2023-04-25T10:18:32;9.10;99.90
49218;DHT22;35045;51.194;7.268;2023-04-25T10:21:01;9.30;99.90
49218;DHT22;35045;51.194;7.268;2023-04-25T10:23:29;9.40;99.90
49218;DHT22;35045;51.194;7.268;2023-04-25T10:25:56;9.50;99.90
49218;DHT22;35045;51.194;7.268;2023-04-25T10:28:23;9.30;99.90
49218;DHT22;35045;51.194;7.268;2023-04-25T10:31:03;9.30;99.90
49218;DHT22;35045;51.194;7.268;2023-04-25T10:36:14;9.10;99.40
49218;DHT22;35045;51.194;7.268;2023-04-25T10:38:42;9.10;99.30
49218;DHT22;35045;51.194;7.268;2023-04-25T10:41:11;9.50;98.80
49218;DHT22;35045;51.194;7.268;2023-04-25T10:43:39;9.70;98.20
49218;DHT22;35045;51.194;7.268;2023-04-25T10:46:25;9.50;97.50
49218;DHT22;35045;51.194;7.268;2023-04-25T10:48:56;9.30;97.50
49218;DHT22;35045;51.194;7.268;2023-04-25T10:51:31;9.00;98.10
49218;DHT22;35045;51.194;7.268;2023-04-25T10:54:06;8.70;98.90
49218;DHT22;35045;51.194;7.268;2023-04-25T10:56:33;8.50;98.60
49218;DHT22;35045;51.194;7.268;2023-04-25T10:59:13;8.30;99.70
49218;DHT22;35045;51.194;7.268;2023-04-25T11:01:43;8.40;99.80
49218;DHT22;35045;51.194;7.268;2023-04-25T11:04:31;8.50;99.90
49218;DHT22;35045;51.194;7.268;2023-04-25T11:09:33;8.90;99.40
49218;DHT22;35045;51.194;7.268;2023-04-25T11:12:00;9.00;98.30
49218;DHT22;35045;51.194;7.268;2023-04-25T11:14:26;9.30;96.80
49218;DHT22;35045;51.194;7.268;2023-04-25T11:16:54;9.50;97.10
49218;DHT22;35045;51.194;7.268;2023-04-25T11:19:23;9.70;96.90
49218;DHT22;35045;51.194;7.268;2023-04-25T11:21:50;9.90;96.10
49218;DHT22;35045;51.194;7.268;2023-04-25T11:24:17;9.80;95.70
49218;DHT22;35045;51.194;7.268;2023-04-25T11:26:43;9.80;95.80
49218;DHT22;35045;51.194;7.268;2023-04-25T11:29:12;10.20;94.00
49218;DHT22;35045;51.194;7.268;2023-04-25T11:31:38;10.40;94.40
49218;DHT22;35045;51.194;7.268;2023-04-25T11:34:04;10.60;94.20
49218;DHT22;35045;51.194;7.268;2023-04-25T11:36:31;11.00;93.70
49218;DHT22;35045;51.194;7.268;2023-04-25T11:38:57;10.90;93.20
49218;DHT22;35045;51.194;7.268;2023-04-25T11:41:25;10.60;92.80
49218;DHT22;35045;51.194;7.268;2023-04-25T11:43:51;10.40;91.70
49218;DHT22;35045;51.194;7.268;2023-04-25T11:46:20;10.20;91.80
49218;DHT22;35045;51.194;7.268;2023-04-25T11:48:47;9.90;92.90
49218;DHT22;35045;51.194;7.268;2023-04-25T11:51:14;9.70;92.60
49218;DHT22;35045;51.194;7.268;2023-04-25T11:53:44;9.70;93.30
49218;DHT22;35045;51.194;7.268;2023-04-25T11:56:11;9.70;93.40
49218;DHT22;35045;51.194;7.268;2023-04-25T11:59:10;9.30;93.80
49218;DHT22;35045;51.194;7.268;2023-04-25T12:01:39;9.20;94.90
49218;DHT22;35045;51.194;7.268;2023-04-25T12:04:21;9.00;96.10
49218;DHT22;35045;51.194;7.268;2023-04-25T12:06:53;8.80;97.60
49218;DHT22;35045;51.194;7.268;2023-04-25T12:09:21;8.50;99.30
49218;DHT22;35045;51.194;7.268;2023-04-25T12:11:57;8.40;99.30
49218;DHT22;35045;51.194;7.268;2023-04-25T12:14:30;8.40;99.90
49218;DHT22;35045;51.194;7.268;2023-04-25T12:16:59;8.30;99.90
49218;DHT22;35045;51.194;7.268;2023-04-25T12:19:26;8.20;99.90
49218;DHT22;35045;51.194;7.268;2023-04-25T12:21:58;8.30;99.90
49218;DHT22;35045;51.194;7.268;2023-04-25T12:24:25;8.50;99.90
49218;DHT22;35045;51.194;7.268;2023-04-25T12:27:01;8.80;99.90
49218;DHT22;35045;51.194;7.268;2023-04-25T12:29:30;9.20;99.00
49218;DHT22;35045;51.194;7.268;2023-04-25T12:32:00;9.50;98.50
49218;DHT22;35045;51.194;7.268;2023-04-25T12:34:27;9.60;98.00
49218;DHT22;35045;51.194;7.268;2023-04-25T12:36:54;9.70;97.30
49218;DHT22;35045;51.194;7.268;2023-04-25T12:39:22;9.80;98.50
49218;DHT22;35045;51.194;7.268;2023-04-25T12:41:50;10.10;97.40
49218;DHT22;35045;51.194;7.268;2023-04-25T12:44:16;9.90;96.30
49218;DHT22;35045;51.194;7.268;2023-04-25T12:46:43;9.80;96.80
49218;DHT22;35045;51.194;7.268;2023-04-25T12:49:09;9.60;97.50
49218;DHT22;35045;51.194;7.268;2023-04-25T12:51:43;10.00;97.20
49218;DHT22;35045;51.194;7.268;2023-04-25T12:54:09;9.90;96.80
49218;DHT22;35045;51.194;7.268;2023-04-25T12:56:35;9.80;96.80
49218;DHT22;35045;51.194;7.268;2023-04-25T12:59:02;9.80;97.00
49218;DHT22;35045;51.194;7.268;2023-04-25T13:01:29;9.70;97.00
49218;DHT22;35045;51.194;7.268;2023-04-25T13:03:55;9.30;97.50
49218;DHT22;35045;51.194;7.268;2023-04-25T13:06:22;9.00;97.90
49218;DHT22;35045;51.194;7.268;2023-04-25T13:08:48;8.70;98.90
49218;DHT22;35045;51.194;7.268;2023-04-25T13:11:15;8.60;99.70
49218;DHT22;35045;51.194;7.268;2023-04-25T13:13:41;8.50;99.80
49218;DHT22;35045;51.194;7.268;2023-04-25T13:16:08;8.40;99.90
49218;DHT22;35045;51.194;7.268;2023-04-25T13:18:34;8.20;99.90
49218;DHT22;35045;51.194;7.268;2023-04-25T13:21:01;8.20;99.80
49218;DHT22;35045;51.194;7.268;2023-04-25T13:23:28;8.10;99.80
49218;DHT22;35045;51.194;7.268;2023-04-25T13:25:55;8.10;99.90
49218;DHT22;35045;51.194;7.268;2023-04-25T13:28:24;8.10;99.90
49218;DHT22;35045;51.194;7.268;2023-04-25T13:30:51;8.20;99.90
49218;DHT22;35045;51.194;7.268;2023-04-25T13:33:18;8.50;99.90
49218;DHT22;35045;51.194;7.268;2023-04-25T13:35:44;9.10;99.80
49218;DHT22;35045;51.194;7.268;2023-04-25T13:38:23;10.00;98.60
49218;DHT22;35045;51.194;7.268;2023-04-25T13:40:50;10.30;98.30
49218;DHT22;35045;51.194;7.268;2023-04-25T13:43:21;10.70;97.30
49218;DHT22;35045;51.194;7.268;2023-04-25T13:45:50;10.90;96.10
49218;DHT22;35045;51.194;7.268;2023-04-25T13:48:17;11.00;95.00
49218;DHT22;35045;51.194;7.268;2023-04-25T13:50:43;11.20;94.30
49218;DHT22;35045;51.194;7.268;2023-04-25T13:53:10;11.70;94.20
49218;DHT22;35045;51.194;7.268;2023-04-25T13:55:36;12.00;92.40
49218;DHT22;35045;51.194;7.268;2023-04-25T13:58:03;12.40;92.40
49218;DHT22;35045;51.194;7.268;2023-04-25T14:00:37;12.80;90.90
49218;DHT22;35045;51.194;7.268;2023-04-25T14:03:09;13.10;91.10
49218;DHT22;35045;51.194;7.268;2023-04-25T14:05:35;13.00;91.40
49218;DHT22;35045;51.194;7.268;2023-04-25T14:08:08;12.70;90.90
49218;DHT22;35045;51.194;7.268;2023-04-25T14:10:35;12.30;91.60
49218;DHT22;35045;51.194;7.268;2023-04-25T14:13:02;11.70;92.50
49218;DHT22;35045;51.194;7.268;2023-04-25T14:15:33;11.40;94.40
49218;DHT22;35045;51.194;7.268;2023-04-25T14:18:00;11.20;94.00
49218;DHT22;35045;51.194;7.268;2023-04-25T14:20:26;10.70;95.30
49218;DHT22;35045;51.194;7.268;2023-04-25T14:22:53;9.60;98.30
49218;DHT22;35045;51.194;7.268;2023-04-25T14:25:20;8.80;99.90
49218;DHT22;35045;51.194;7.268;2023-04-25T14:27:47;8.30;99.90
49218;DHT22;35045;51.194;7.268;2023-04-25T14:30:17;7.90;99.90
49218;DHT22;35045;51.194;7.268;2023-04-25T14:52:23;8.60;99.90
49218;DHT22;35045;51.194;7.268;2023-04-25T14:54:51;8.80;99.90
49218;DHT22;35045;51.194;7.268;2023-04-25T14:57:17;8.80;99.90
49218;DHT22;35045;51.194;7.268;2023-04-25T14:59:43;8.80;99.90
49218;DHT22;35045;51.194;7.268;2023-04-25T15:02:10;9.10;99.90
49218;DHT22;35045;51.194;7.268;2023-04-25T15:04:36;9.50;99.90
49218;DHT22;35045;51.194;7.268;2023-04-25T15:07:02;9.90;99.90
49218;DHT22;35045;51.194;7.268;2023-04-25T15:09:29;11.10;99.90
49218;DHT22;35045;51.194;7.268;2023-04-25T15:11:57;13.20;99.40
49218;DHT22;35045;51.194;7.268;2023-04-25T15:14:23;14.80;97.10
49218;DHT22;35045;51.194;7.268;2023-04-25T15:16:49;16.00;94.00
49218;DHT22;35045;51.194;7.268;2023-04-25T15:19:16;17.00;93.70
49218;DHT22;35045;51.194;7.268;2023-04-25T15:21:42;17.90;91.00
49218;DHT22;35045;51.194;7.268;2023-04-25T15:24:08;18.50;86.80
49218;DHT22;35045;51.194;7.268;2023-04-25T15:26:34;18.60;88.40
49218;DHT22;35045;51.194;7.268;2023-04-25T15:29:00;19.40;86.40
49218;DHT22;35045;51.194;7.268;2023-04-25T15:31:27;19.70;83.00
49218;DHT22;35045;51.194;7.268;2023-04-25T15:33:53;19.80;82.80
49218;DHT22;35045;51.194;7.268;2023-04-25T15:36:19;19.30;84.30
49218;DHT22;35045;51.194;7.268;2023-04-25T15:38:46;17.80;81.70
49218;DHT22;35045;51.194;7.268;2023-04-25T15:41:12;15.80;87.40
49218;DHT22;35045;51.194;7.268;2023-04-25T15:43:38;15.10;90.50
49218;DHT22;35045;51.194;7.268;2023-04-25T15:46:05;14.00;91.20
49218;DHT22;35045;51.194;7.268;2023-04-25T15:48:32;13.10;92.60
49218;DHT22;35045;51.194;7.268;2023-04-25T15:50:58;12.20;94.00
49218;DHT22;35045;51.194;7.268;2023-04-25T15:53:24;11.90;95.70
49218;DHT22;35045;51.194;7.268;2023-04-25T15:55:51;11.90;95.20
49218;DHT22;35045;51.194;7.268;2023-04-25T15:58:17;11.50;94.80
49218;DHT22;35045;51.194;7.268;2023-04-25T16:00:44;11.20;95.30
49218;DHT22;35045;51.194;7.268;2023-04-25T16:03:10;11.00;95.90
49218;DHT22;35045;51.194;7.268;2023-04-25T16:05:36;11.00;96.40
49218;DHT22;35045;51.194;7.268;2023-04-25T16:08:03;10.70;96.40
49218;DHT22;35045;51.194;7.268;2023-04-25T16:10:30;10.50;96.30